VOS Partner — PDBU — position and weather

sailwx.info

Track history (hours):
 
Tides and Currents Weather Stations Pressure Air Temp Water Temp Dewpoint Dewpoint Depression Visibility Wind Speed Wind Dir Waves Ship Positions

VOS Partner

Last reported at 2018-Apr-17 23:39 UTC. Time now 2018-Apr-19 23:30 UTC.
Position N 36°39' E 015°13'.

Length 83 m; draft 4.9 m.

Type: Ship. MMSI: 244860549.

Date/timePositionNaut miles runAvg speedWind from/ knotsBaromVisibWave heightAir tempDewpointWater temp
2018-Apr-17 23:39N 36°39' E 015°13'210.7
2018-Apr-17 23:29N 36°37' E 015°12'611.3
2018-Apr-17 23:00N 36°33' E 015°08'611.2
2018-Apr-17 22:28N 36°28' E 015°03'1211.8
2018-Apr-17 21:25N 36°18' E 014°54'4 9.9
2018-Apr-17 20:58N 36°15' E 014°51'711.1
2018-Apr-17 20:22N 36°09' E 014°46'511.2
2018-Apr-17 19:58N 36°06' E 014°42'612.2
2018-Apr-17 19:30N 36°01' E 014°38'510.1
2018-Apr-17 19:00N 35°57' E 014°35'6 1.7
2018-Apr-17 15:41N 35°53' E 014°30'0 0.0
2018-Apr-17 14:35N 35°53' E 014°30'0 0.0
2018-Apr-17 14:23N 35°53' E 014°30'0 0.0
2018-Apr-17 13:59N 35°53' E 014°30'0 0.0
2018-Apr-17 10:38N 35°53' E 014°30'0 0.0
2018-Apr-17 10:29N 35°53' E 014°30'0 0.0
2018-Apr-17 09:59N 35°53' E 014°30'0 0.0
2018-Apr-17 06:18N 35°53' E 014°30'0 0.0
2018-Apr-17 05:52N 35°53' E 014°30'0 0.0
2018-Apr-17 05:26N 35°53' E 014°30'0 0.0
2018-Apr-17 04:59N 35°53' E 014°30'0 0.0
2018-Apr-17 04:22N 35°53' E 014°30'0 0.0
2018-Apr-17 02:09N 35°53' E 014°30'0 0.0
2018-Apr-17 01:50N 35°53' E 014°30'0 0.0
2018-Apr-16 23:28N 35°53' E 014°30'0 0.0
2018-Apr-16 21:20N 35°53' E 014°30'0 0.0
2018-Apr-16 20:45N 35°53' E 014°30'0 0.0
2018-Apr-16 15:44N 35°53' E 014°30'0 0.0
2018-Apr-16 12:51N 35°53' E 014°30'0 0.0
2018-Apr-16 10:51N 35°53' E 014°30'0 0.0
2018-Apr-16 09:08N 35°53' E 014°30'0 0.0
2018-Apr-16 08:59N 35°53' E 014°30'2 3.6
2018-Apr-16 08:28N 35°54' E 014°32'1 2.9
2018-Apr-16 08:00N 35°55' E 014°33'2 4.7
2018-Apr-16 07:30N 35°57' E 014°35'3 5.0
2018-Apr-16 07:00N 35°58' E 014°37'611.6
2018-Apr-16 06:29N 35°55' E 014°43'  
2018-Apr-13 17:33N 33°44' E 012°43'1 9.9
2018-Apr-13 17:26N 33°45' E 012°44'3 5.4
2018-Apr-13 16:57N 33°46' E 012°47'0 0.0
2018-Apr-13 15:12N 33°46' E 012°47'92 6.6
2018-Apr-13 01:21N 34°59' E 013°55'3111.4
2018-Apr-12 22:36N 35°23' E 014°20'112.1
2018-Apr-12 22:30N 35°24' E 014°21'510.4
2018-Apr-12 21:59N 35°28' E 014°25'511.3
2018-Apr-12 21:30N 35°32' E 014°29'511.0
2018-Apr-12 21:00N 35°36' E 014°33'611.1
2018-Apr-12 20:30N 35°41' E 014°37'611.1
2018-Apr-12 19:58N 35°45' E 014°42'511.1
2018-Apr-12 19:29N 35°49' E 014°47'510.1
2018-Apr-12 19:00N 35°53' E 014°43'611.6
2018-Apr-12 18:30N 35°55' E 014°36'5 0.2
2018-Apr-11 07:27N 35°53' E 014°30'3 6.2
2018-Apr-11 07:00N 35°55' E 014°33'1 1.1
2018-Apr-11 06:30N 35°55' E 014°34'1 1.5
2018-Apr-11 06:00N 35°55' E 014°34'0 0.3
2018-Apr-11 05:30N 35°55' E 014°35'3 5.3
2018-Apr-11 05:00N 35°56' E 014°38'3 6.1
2018-Apr-11 04:28N 35°54' E 014°42'4 7.6
2018-Apr-11 04:00N 35°52' E 014°45'3 6.2
2018-Apr-11 03:29N 35°49' E 014°47'68 9.3
2018-Apr-10 20:10N 34°57' E 013°53'2 9.0
2018-Apr-10 19:59N 34°55' E 013°52'2512.1
2018-Apr-10 17:56N 34°36' E 013°33'  
Track history (hours):
 
Tides and Currents Weather Stations Pressure Air Temp Water Temp Dewpoint Dewpoint Depression Visibility Wind Speed Wind Dir Waves Ship Positions

VOS Partner

Last reported at 2018-Apr-17 23:39 UTC. Time now 2018-Apr-19 23:30 UTC.
Position N 36°39' E 015°13'.

Length 83 m; draft 4.9 m.

Type: Ship. MMSI: 244860549.

Date/timePositionNaut miles runAvg speedWind from/ knotsBaromVisibWave heightAir tempDewpointWater temp
2018-Apr-17 23:39N 36°39' E 015°13'210.7
2018-Apr-17 23:29N 36°37' E 015°12'611.3
2018-Apr-17 23:00N 36°33' E 015°08'611.2
2018-Apr-17 22:28N 36°28' E 015°03'1211.8
2018-Apr-17 21:25N 36°18' E 014°54'4 9.9
2018-Apr-17 20:58N 36°15' E 014°51'711.1
2018-Apr-17 20:22N 36°09' E 014°46'511.2
2018-Apr-17 19:58N 36°06' E 014°42'612.2
2018-Apr-17 19:30N 36°01' E 014°38'510.1
2018-Apr-17 19:00N 35°57' E 014°35'6 1.7
2018-Apr-17 15:41N 35°53' E 014°30'0 0.0
2018-Apr-17 14:35N 35°53' E 014°30'0 0.0
2018-Apr-17 14:23N 35°53' E 014°30'0 0.0
2018-Apr-17 13:59N 35°53' E 014°30'0 0.0
2018-Apr-17 10:38N 35°53' E 014°30'0 0.0
2018-Apr-17 10:29N 35°53' E 014°30'0 0.0
2018-Apr-17 09:59N 35°53' E 014°30'0 0.0
2018-Apr-17 06:18N 35°53' E 014°30'0 0.0
2018-Apr-17 05:52N 35°53' E 014°30'0 0.0
2018-Apr-17 05:26N 35°53' E 014°30'0 0.0
2018-Apr-17 04:59N 35°53' E 014°30'0 0.0
2018-Apr-17 04:22N 35°53' E 014°30'0 0.0
2018-Apr-17 02:09N 35°53' E 014°30'0 0.0
2018-Apr-17 01:50N 35°53' E 014°30'0 0.0
2018-Apr-16 23:28N 35°53' E 014°30'0 0.0
2018-Apr-16 21:20N 35°53' E 014°30'0 0.0
2018-Apr-16 20:45N 35°53' E 014°30'0 0.0
2018-Apr-16 15:44N 35°53' E 014°30'0 0.0
2018-Apr-16 12:51N 35°53' E 014°30'0 0.0
2018-Apr-16 10:51N 35°53' E 014°30'0 0.0
2018-Apr-16 09:08N 35°53' E 014°30'0 0.0
2018-Apr-16 08:59N 35°53' E 014°30'2 3.6
2018-Apr-16 08:28N 35°54' E 014°32'1 2.9
2018-Apr-16 08:00N 35°55' E 014°33'2 4.7
2018-Apr-16 07:30N 35°57' E 014°35'3 5.0
2018-Apr-16 07:00N 35°58' E 014°37'611.6
2018-Apr-16 06:29N 35°55' E 014°43'  
2018-Apr-13 17:33N 33°44' E 012°43'1 9.9
2018-Apr-13 17:26N 33°45' E 012°44'3 5.4
2018-Apr-13 16:57N 33°46' E 012°47'0 0.0
2018-Apr-13 15:12N 33°46' E 012°47'92 6.6
2018-Apr-13 01:21N 34°59' E 013°55'3111.4
2018-Apr-12 22:36N 35°23' E 014°20'112.1
2018-Apr-12 22:30N 35°24' E 014°21'510.4
2018-Apr-12 21:59N 35°28' E 014°25'511.3
2018-Apr-12 21:30N 35°32' E 014°29'511.0
2018-Apr-12 21:00N 35°36' E 014°33'611.1
2018-Apr-12 20:30N 35°41' E 014°37'611.1
2018-Apr-12 19:58N 35°45' E 014°42'511.1
2018-Apr-12 19:29N 35°49' E 014°47'510.1
2018-Apr-12 19:00N 35°53' E 014°43'611.6
2018-Apr-12 18:30N 35°55' E 014°36'5 0.2
2018-Apr-11 07:27N 35°53' E 014°30'3 6.2
2018-Apr-11 07:00N 35°55' E 014°33'1 1.1
2018-Apr-11 06:30N 35°55' E 014°34'1 1.5
2018-Apr-11 06:00N 35°55' E 014°34'0 0.3
2018-Apr-11 05:30N 35°55' E 014°35'3 5.3
2018-Apr-11 05:00N 35°56' E 014°38'3 6.1
2018-Apr-11 04:28N 35°54' E 014°42'4 7.6
2018-Apr-11 04:00N 35°52' E 014°45'3 6.2
2018-Apr-11 03:29N 35°49' E 014°47'68 9.3
2018-Apr-10 20:10N 34°57' E 013°53'2 9.0
2018-Apr-10 19:59N 34°55' E 013°52'2512.1
2018-Apr-10 17:56N 34°36' E 013°33'  

Dump ship's entire track history